SCSE

Details ICAO SCSE (LSC)
Name La Florida Airport
Region Chile
Timezone America/Santiago (UTC-3.0)
Plans Departing 66
Arriving 111
Stats Elevation 480 ft / 146 m (AMSL)
Location -29.916400° -71.199600°
Runways 1
Magnetic Variation 0.123° E
Sunrise 2018-12-17 09:40:22 UTC / 2018-12-17 06:40:22 Local
Sunset 2018-12-17 23:44:09 UTC / 2018-12-17 20:44:09 Local
Advertisement - Login to hide

Runways

ID Width Length Bearing (true/mag) Surface Threshold Overrun Markings Lighting
12 148 ft / 45 m 6,354 ft / 1,937 m 116.40° / 116.27° ASPHALT 0 ft / 0 m 0 ft / 0 m PREC-APP CENTERLINE EDGE THRESHOLD MALS REIL-OMNI
30 148 ft / 45 m 6,354 ft / 1,937 m 296.39° / 296.27° ASPHALT 0 ft / 0 m 0 ft / 0 m PREC-APP CENTERLINE EDGE THRESHOLD

Map

Weather


0- 5 10 15 20 25 30 35+ Temperature / °C

Clouds and Precipitation
Forecast for 2018-12-17 12:00 UTC. Updated 24 minutes ago

Ground ~20,000 ft ~40,000 ft Winds

METAR

SCSE 170900Z 00000KT 9999 OVC008 14/13 Q1013

TAF

TAF SCSE 170410Z 1706/1806 29004KT 9999 BKN012 TX19/1719Z TN12/1711Z TEMPO 1706/1713 11004KT 6000 SCT005 BKN010 BECMG 1715/1717 28010KT SCT010 BKN020 BECMG 1718/1720 CAVOK BECMG 1801/1803 29004KT

Frequencies

Tower 118.60 MHz La Florida Tower
Unicom 122.80 MHz La Florida Unicom
Approach 128.10 MHz La Florida Approach
Ground 121.90 MHz La Florida Ground
Warning: Do not use this data for real-world aviation or navigation. No guarantee of current accuracy is given.